sensor_id;sensor_type;location;lat;lon;timestamp;P1;durP1;ratioP1;P2;durP2;ratioP2
17890;SDS011;9071;48.220;14.480;2023-08-01T00:04:33;8.05;;;4.78;;
17890;SDS011;9071;48.220;14.480;2023-08-01T00:09:35;8.02;;;5.00;;
17890;SDS011;9071;48.220;14.480;2023-08-01T00:14:37;6.50;;;5.15;;
17890;SDS011;9071;48.220;14.480;2023-08-01T00:19:41;6.40;;;4.50;;
17890;SDS011;9071;48.220;14.480;2023-08-01T00:24:43;9.35;;;5.30;;
17890;SDS011;9071;48.220;14.480;2023-08-01T00:29:45;7.22;;;4.95;;
17890;SDS011;9071;48.220;14.480;2023-08-01T00:34:51;9.18;;;4.75;;
17890;SDS011;9071;48.220;14.480;2023-08-01T00:39:53;6.82;;;4.45;;
17890;SDS011;9071;48.220;14.480;2023-08-01T00:44:55;7.95;;;5.13;;
17890;SDS011;9071;48.220;14.480;2023-08-01T00:49:58;7.45;;;4.43;;
17890;SDS011;9071;48.220;14.480;2023-08-01T00:55:01;8.90;;;4.82;;
17890;SDS011;9071;48.220;14.480;2023-08-01T01:00:04;6.85;;;4.72;;
17890;SDS011;9071;48.220;14.480;2023-08-01T01:05:09;8.48;;;4.97;;
17890;SDS011;9071;48.220;14.480;2023-08-01T01:10:11;6.50;;;4.50;;
17890;SDS011;9071;48.220;14.480;2023-08-01T01:15:13;7.72;;;4.70;;
17890;SDS011;9071;48.220;14.480;2023-08-01T01:20:20;7.32;;;4.88;;
17890;SDS011;9071;48.220;14.480;2023-08-01T01:25:25;6.43;;;4.25;;
17890;SDS011;9071;48.220;14.480;2023-08-01T01:30:29;6.10;;;4.75;;
17890;SDS011;9071;48.220;14.480;2023-08-01T01:35:33;5.90;;;4.53;;
17890;SDS011;9071;48.220;14.480;2023-08-01T01:40:37;5.72;;;4.30;;
17890;SDS011;9071;48.220;14.480;2023-08-01T01:45:39;5.93;;;4.22;;
17890;SDS011;9071;48.220;14.480;2023-08-01T01:50:41;5.53;;;4.75;;
17890;SDS011;9071;48.220;14.480;2023-08-01T01:55:44;7.78;;;4.28;;
17890;SDS011;9071;48.220;14.480;2023-08-01T02:00:46;6.93;;;4.30;;
17890;SDS011;9071;48.220;14.480;2023-08-01T02:05:50;9.75;;;4.18;;
17890;SDS011;9071;48.220;14.480;2023-08-01T02:10:54;6.50;;;4.00;;
17890;SDS011;9071;48.220;14.480;2023-08-01T02:15:58;7.07;;;4.28;;
17890;SDS011;9071;48.220;14.480;2023-08-01T02:21:00;6.03;;;4.40;;
17890;SDS011;9071;48.220;14.480;2023-08-01T02:26:03;6.75;;;4.80;;
17890;SDS011;9071;48.220;14.480;2023-08-01T02:31:08;8.15;;;4.65;;
17890;SDS011;9071;48.220;14.480;2023-08-01T02:36:10;8.77;;;4.80;;
17890;SDS011;9071;48.220;14.480;2023-08-01T02:41:13;6.15;;;4.68;;
17890;SDS011;9071;48.220;14.480;2023-08-01T02:46:15;8.52;;;5.32;;
17890;SDS011;9071;48.220;14.480;2023-08-01T02:51:18;9.68;;;5.80;;
17890;SDS011;9071;48.220;14.480;2023-08-01T02:56:21;7.07;;;4.80;;
17890;SDS011;9071;48.220;14.480;2023-08-01T03:01:23;6.35;;;5.18;;
17890;SDS011;9071;48.220;14.480;2023-08-01T03:06:25;6.05;;;5.25;;
17890;SDS011;9071;48.220;14.480;2023-08-01T03:11:29;6.45;;;4.45;;
17890;SDS011;9071;48.220;14.480;2023-08-01T03:16:31;6.80;;;4.55;;
17890;SDS011;9071;48.220;14.480;2023-08-01T03:21:33;8.70;;;5.07;;
17890;SDS011;9071;48.220;14.480;2023-08-01T03:26:37;10.32;;;5.75;;
17890;SDS011;9071;48.220;14.480;2023-08-01T03:31:39;6.63;;;5.28;;
17890;SDS011;9071;48.220;14.480;2023-08-01T03:36:41;10.07;;;5.47;;
17890;SDS011;9071;48.220;14.480;2023-08-01T03:41:45;8.35;;;5.68;;
17890;SDS011;9071;48.220;14.480;2023-08-01T03:46:47;5.53;;;4.32;;
17890;SDS011;9071;48.220;14.480;2023-08-01T03:51:49;9.50;;;5.13;;
17890;SDS011;9071;48.220;14.480;2023-08-01T03:56:52;7.95;;;5.13;;
17890;SDS011;9071;48.220;14.480;2023-08-01T04:01:54;6.53;;;5.45;;
17890;SDS011;9071;48.220;14.480;2023-08-01T04:06:56;6.68;;;5.25;;
17890;SDS011;9071;48.220;14.480;2023-08-01T04:12:00;8.23;;;5.40;;
17890;SDS011;9071;48.220;14.480;2023-08-01T04:17:02;10.32;;;5.90;;
17890;SDS011;9071;48.220;14.480;2023-08-01T04:22:05;10.82;;;5.85;;
17890;SDS011;9071;48.220;14.480;2023-08-01T04:27:10;6.75;;;5.10;;
17890;SDS011;9071;48.220;14.480;2023-08-01T04:32:12;8.25;;;5.90;;
17890;SDS011;9071;48.220;14.480;2023-08-01T04:37:15;6.72;;;5.43;;
17890;SDS011;9071;48.220;14.480;2023-08-01T04:42:22;6.50;;;5.05;;
17890;SDS011;9071;48.220;14.480;2023-08-01T04:47:24;8.80;;;6.60;;
17890;SDS011;9071;48.220;14.480;2023-08-01T04:52:26;9.25;;;6.25;;
17890;SDS011;9071;48.220;14.480;2023-08-01T04:57:29;10.05;;;6.22;;
17890;SDS011;9071;48.220;14.480;2023-08-01T05:02:31;12.85;;;6.10;;
17890;SDS011;9071;48.220;14.480;2023-08-01T05:07:33;7.65;;;5.85;;
17890;SDS011;9071;48.220;14.480;2023-08-01T05:12:37;9.75;;;6.30;;
17890;SDS011;9071;48.220;14.480;2023-08-01T05:17:39;7.60;;;5.93;;
17890;SDS011;9071;48.220;14.480;2023-08-01T05:22:41;7.32;;;5.65;;
17890;SDS011;9071;48.220;14.480;2023-08-01T05:27:45;8.50;;;5.97;;
17890;SDS011;9071;48.220;14.480;2023-08-01T05:32:47;7.90;;;6.18;;
17890;SDS011;9071;48.220;14.480;2023-08-01T05:37:49;9.73;;;6.72;;
17890;SDS011;9071;48.220;14.480;2023-08-01T05:42:52;11.05;;;7.55;;
17890;SDS011;9071;48.220;14.480;2023-08-01T05:47:54;9.90;;;6.95;;
17890;SDS011;9071;48.220;14.480;2023-08-01T05:52:56;17.38;;;9.95;;
17890;SDS011;9071;48.220;14.480;2023-08-01T05:58:00;14.25;;;9.88;;
17890;SDS011;9071;48.220;14.480;2023-08-01T06:03:02;14.05;;;8.52;;
17890;SDS011;9071;48.220;14.480;2023-08-01T06:08:05;11.60;;;8.30;;
17890;SDS011;9071;48.220;14.480;2023-08-01T06:13:09;10.32;;;8.23;;
17890;SDS011;9071;48.220;14.480;2023-08-01T06:18:11;10.27;;;7.15;;
17890;SDS011;9071;48.220;14.480;2023-08-01T06:23:14;8.85;;;6.93;;
17890;SDS011;9071;48.220;14.480;2023-08-01T06:28:17;12.00;;;7.10;;
17890;SDS011;9071;48.220;14.480;2023-08-01T06:33:19;9.77;;;7.68;;
17890;SDS011;9071;48.220;14.480;2023-08-01T06:38:21;11.65;;;6.90;;
17890;SDS011;9071;48.220;14.480;2023-08-01T06:43:25;12.68;;;7.63;;
17890;SDS011;9071;48.220;14.480;2023-08-01T06:48:27;10.32;;;7.53;;
17890;SDS011;9071;48.220;14.480;2023-08-01T06:53:29;8.20;;;7.05;;
17890;SDS011;9071;48.220;14.480;2023-08-01T06:58:32;10.23;;;6.97;;
17890;SDS011;9071;48.220;14.480;2023-08-01T07:03:34;10.32;;;6.20;;
17890;SDS011;9071;48.220;14.480;2023-08-01T07:08:36;8.55;;;6.60;;
17890;SDS011;9071;48.220;14.480;2023-08-01T07:13:40;8.73;;;6.60;;
17890;SDS011;9071;48.220;14.480;2023-08-01T07:18:42;7.43;;;6.15;;
17890;SDS011;9071;48.220;14.480;2023-08-01T07:23:44;10.57;;;6.85;;
17890;SDS011;9071;48.220;14.480;2023-08-01T07:28:49;9.07;;;7.05;;
17890;SDS011;9071;48.220;14.480;2023-08-01T07:33:51;10.35;;;7.45;;
17890;SDS011;9071;48.220;14.480;2023-08-01T07:38:53;10.35;;;7.43;;
17890;SDS011;9071;48.220;14.480;2023-08-01T07:43:57;14.30;;;7.40;;
17890;SDS011;9071;48.220;14.480;2023-08-01T07:48:59;13.60;;;7.75;;
17890;SDS011;9071;48.220;14.480;2023-08-01T07:54:02;12.95;;;7.25;;
17890;SDS011;9071;48.220;14.480;2023-08-01T07:59:06;11.82;;;7.75;;
17890;SDS011;9071;48.220;14.480;2023-08-01T08:04:08;11.07;;;7.65;;
17890;SDS011;9071;48.220;14.480;2023-08-01T08:09:10;11.90;;;7.43;;
17890;SDS011;9071;48.220;14.480;2023-08-01T08:14:14;11.15;;;7.95;;
17890;SDS011;9071;48.220;14.480;2023-08-01T08:19:17;9.07;;;7.55;;
17890;SDS011;9071;48.220;14.480;2023-08-01T08:24:19;10.50;;;7.95;;
17890;SDS011;9071;48.220;14.480;2023-08-01T08:29:23;8.02;;;5.75;;
17890;SDS011;9071;48.220;14.480;2023-08-01T08:34:25;9.68;;;6.40;;
17890;SDS011;9071;48.220;14.480;2023-08-01T08:39:27;7.82;;;4.20;;
17890;SDS011;9071;48.220;14.480;2023-08-01T08:44:30;8.32;;;4.43;;
17890;SDS011;9071;48.220;14.480;2023-08-01T08:49:36;6.43;;;4.25;;
17890;SDS011;9071;48.220;14.480;2023-08-01T08:54:39;8.05;;;4.45;;
17890;SDS011;9071;48.220;14.480;2023-08-01T08:59:43;6.63;;;3.70;;
17890;SDS011;9071;48.220;14.480;2023-08-01T09:04:47;7.13;;;3.97;;
17890;SDS011;9071;48.220;14.480;2023-08-01T09:09:49;6.45;;;3.78;;
17890;SDS011;9071;48.220;14.480;2023-08-01T09:14:53;7.10;;;4.10;;
17890;SDS011;9071;48.220;14.480;2023-08-01T09:20:03;6.65;;;4.22;;
17890;SDS011;9071;48.220;14.480;2023-08-01T09:25:06;8.65;;;5.30;;
17890;SDS011;9071;48.220;14.480;2023-08-01T09:30:11;8.40;;;5.78;;
17890;SDS011;9071;48.220;14.480;2023-08-01T09:35:16;9.05;;;5.25;;
17890;SDS011;9071;48.220;14.480;2023-08-01T09:40:18;7.85;;;5.03;;
17890;SDS011;9071;48.220;14.480;2023-08-01T09:45:22;7.63;;;5.05;;
17890;SDS011;9071;48.220;14.480;2023-08-01T09:50:24;10.20;;;6.10;;
17890;SDS011;9071;48.220;14.480;2023-08-01T09:55:29;9.70;;;6.63;;
17890;SDS011;9071;48.220;14.480;2023-08-01T10:00:34;12.65;;;7.65;;
17890;SDS011;9071;48.220;14.480;2023-08-01T10:05:37;8.70;;;6.43;;
17890;SDS011;9071;48.220;14.480;2023-08-01T10:10:41;8.25;;;5.07;;
17890;SDS011;9071;48.220;14.480;2023-08-01T10:15:46;7.65;;;5.75;;
17890;SDS011;9071;48.220;14.480;2023-08-01T10:20:48;11.07;;;6.35;;
17890;SDS011;9071;48.220;14.480;2023-08-01T10:25:51;12.00;;;7.40;;
17890;SDS011;9071;48.220;14.480;2023-08-01T10:30:55;12.45;;;7.38;;
17890;SDS011;9071;48.220;14.480;2023-08-01T10:36:15;9.45;;;5.25;;
17890;SDS011;9071;48.220;14.480;2023-08-01T10:41:18;9.10;;;5.63;;
17890;SDS011;9071;48.220;14.480;2023-08-01T10:46:23;9.45;;;5.50;;
17890;SDS011;9071;48.220;14.480;2023-08-01T10:51:25;8.90;;;5.45;;
17890;SDS011;9071;48.220;14.480;2023-08-01T10:56:36;8.40;;;5.18;;
17890;SDS011;9071;48.220;14.480;2023-08-01T11:01:44;8.13;;;5.15;;
17890;SDS011;9071;48.220;14.480;2023-08-01T11:06:47;8.90;;;5.82;;
17890;SDS011;9071;48.220;14.480;2023-08-01T11:11:52;9.05;;;5.65;;
17890;SDS011;9071;48.220;14.480;2023-08-01T11:16:56;7.32;;;5.65;;
17890;SDS011;9071;48.220;14.480;2023-08-01T11:22:07;9.52;;;6.03;;
17890;SDS011;9071;48.220;14.480;2023-08-01T11:27:10;9.70;;;5.20;;
17890;SDS011;9071;48.220;14.480;2023-08-01T11:32:14;13.02;;;6.38;;
17890;SDS011;9071;48.220;14.480;2023-08-01T11:37:18;10.93;;;6.45;;
17890;SDS011;9071;48.220;14.480;2023-08-01T11:42:21;8.00;;;6.03;;
17890;SDS011;9071;48.220;14.480;2023-08-01T11:47:24;10.48;;;5.90;;
17890;SDS011;9071;48.220;14.480;2023-08-01T11:52:28;9.27;;;5.43;;
17890;SDS011;9071;48.220;14.480;2023-08-01T11:57:31;8.88;;;5.45;;
17890;SDS011;9071;48.220;14.480;2023-08-01T12:02:34;7.53;;;5.53;;
17890;SDS011;9071;48.220;14.480;2023-08-01T12:07:36;7.70;;;5.40;;
17890;SDS011;9071;48.220;14.480;2023-08-01T12:12:43;7.05;;;4.70;;
17890;SDS011;9071;48.220;14.480;2023-08-01T12:17:47;7.13;;;5.00;;
17890;SDS011;9071;48.220;14.480;2023-08-01T12:22:49;8.95;;;5.72;;
17890;SDS011;9071;48.220;14.480;2023-08-01T12:27:51;8.02;;;5.28;;
17890;SDS011;9071;48.220;14.480;2023-08-01T12:32:55;9.38;;;6.05;;
17890;SDS011;9071;48.220;14.480;2023-08-01T12:37:57;7.00;;;5.50;;
17890;SDS011;9071;48.220;14.480;2023-08-01T12:42:59;7.80;;;5.60;;
17890;SDS011;9071;48.220;14.480;2023-08-01T12:48:03;10.77;;;6.32;;
17890;SDS011;9071;48.220;14.480;2023-08-01T12:53:05;10.18;;;6.13;;
17890;SDS011;9071;48.220;14.480;2023-08-01T12:58:07;8.70;;;5.88;;
17890;SDS011;9071;48.220;14.480;2023-08-01T13:03:10;9.73;;;6.25;;
17890;SDS011;9071;48.220;14.480;2023-08-01T13:08:13;10.93;;;6.40;;
17890;SDS011;9071;48.220;14.480;2023-08-01T13:13:15;10.30;;;6.88;;
17890;SDS011;9071;48.220;14.480;2023-08-01T13:18:18;8.45;;;6.35;;
17890;SDS011;9071;48.220;14.480;2023-08-01T13:23:20;13.35;;;7.00;;
17890;SDS011;9071;48.220;14.480;2023-08-01T13:28:22;10.45;;;7.22;;
17890;SDS011;9071;48.220;14.480;2023-08-01T13:33:26;14.05;;;7.70;;
17890;SDS011;9071;48.220;14.480;2023-08-01T13:38:29;12.70;;;8.07;;
17890;SDS011;9071;48.220;14.480;2023-08-01T13:43:31;10.95;;;7.53;;
17890;SDS011;9071;48.220;14.480;2023-08-01T13:48:34;11.23;;;7.68;;
17890;SDS011;9071;48.220;14.480;2023-08-01T13:53:36;11.38;;;7.30;;
17890;SDS011;9071;48.220;14.480;2023-08-01T13:58:41;8.52;;;5.65;;
17890;SDS011;9071;48.220;14.480;2023-08-01T14:03:45;6.60;;;4.47;;
17890;SDS011;9071;48.220;14.480;2023-08-01T14:08:47;8.55;;;4.40;;
17890;SDS011;9071;48.220;14.480;2023-08-01T14:13:49;5.40;;;4.13;;
17890;SDS011;9071;48.220;14.480;2023-08-01T14:18:52;6.68;;;4.25;;
17890;SDS011;9071;48.220;14.480;2023-08-01T14:23:54;6.03;;;4.18;;
17890;SDS011;9071;48.220;14.480;2023-08-01T14:28:56;7.32;;;4.65;;
17890;SDS011;9071;48.220;14.480;2023-08-01T14:34:00;6.75;;;4.18;;
17890;SDS011;9071;48.220;14.480;2023-08-01T14:39:02;5.82;;;4.18;;
17890;SDS011;9071;48.220;14.480;2023-08-01T14:44:04;5.85;;;3.90;;
17890;SDS011;9071;48.220;14.480;2023-08-01T14:49:08;5.82;;;3.90;;
17890;SDS011;9071;48.220;14.480;2023-08-01T14:54:10;4.80;;;3.22;;
17890;SDS011;9071;48.220;14.480;2023-08-01T14:59:13;4.85;;;3.58;;
17890;SDS011;9071;48.220;14.480;2023-08-01T15:04:16;7.68;;;3.85;;
17890;SDS011;9071;48.220;14.480;2023-08-01T15:09:18;7.50;;;4.15;;
17890;SDS011;9071;48.220;14.480;2023-08-01T15:14:20;6.10;;;4.25;;
17890;SDS011;9071;48.220;14.480;2023-08-01T15:19:24;5.05;;;3.97;;
17890;SDS011;9071;48.220;14.480;2023-08-01T15:24:26;5.97;;;3.70;;
17890;SDS011;9071;48.220;14.480;2023-08-01T15:29:28;5.40;;;3.80;;
17890;SDS011;9071;48.220;14.480;2023-08-01T15:34:32;4.30;;;3.20;;
17890;SDS011;9071;48.220;14.480;2023-08-01T15:39:34;4.70;;;3.47;;
17890;SDS011;9071;48.220;14.480;2023-08-01T15:44:36;4.80;;;3.72;;
17890;SDS011;9071;48.220;14.480;2023-08-01T15:49:40;4.50;;;3.40;;
17890;SDS011;9071;48.220;14.480;2023-08-01T15:54:42;5.40;;;3.50;;
17890;SDS011;9071;48.220;14.480;2023-08-01T15:59:44;9.55;;;4.15;;
17890;SDS011;9071;48.220;14.480;2023-08-01T16:04:48;6.55;;;4.45;;
17890;SDS011;9071;48.220;14.480;2023-08-01T16:09:50;8.52;;;6.07;;
17890;SDS011;9071;48.220;14.480;2023-08-01T16:14:52;7.65;;;6.32;;
17890;SDS011;9071;48.220;14.480;2023-08-01T16:19:55;7.80;;;4.75;;
17890;SDS011;9071;48.220;14.480;2023-08-01T16:24:58;6.30;;;4.80;;
17890;SDS011;9071;48.220;14.480;2023-08-01T16:30:00;6.05;;;4.45;;
17890;SDS011;9071;48.220;14.480;2023-08-01T16:35:04;6.80;;;4.78;;
17890;SDS011;9071;48.220;14.480;2023-08-01T16:40:07;6.22;;;4.70;;
17890;SDS011;9071;48.220;14.480;2023-08-01T16:45:11;5.85;;;4.75;;
17890;SDS011;9071;48.220;14.480;2023-08-01T16:50:15;8.38;;;5.93;;
17890;SDS011;9071;48.220;14.480;2023-08-01T16:55:18;8.85;;;5.95;;
17890;SDS011;9071;48.220;14.480;2023-08-01T17:00:20;8.32;;;6.20;;
17890;SDS011;9071;48.220;14.480;2023-08-01T17:05:24;8.35;;;5.22;;
17890;SDS011;9071;48.220;14.480;2023-08-01T17:10:26;5.82;;;3.83;;
17890;SDS011;9071;48.220;14.480;2023-08-01T17:15:28;4.60;;;3.70;;
17890;SDS011;9071;48.220;14.480;2023-08-01T17:20:31;7.05;;;4.00;;
17890;SDS011;9071;48.220;14.480;2023-08-01T17:25:36;4.93;;;3.63;;
17890;SDS011;9071;48.220;14.480;2023-08-01T17:30:38;5.70;;;3.45;;
17890;SDS011;9071;48.220;14.480;2023-08-01T17:35:42;4.75;;;3.70;;
17890;SDS011;9071;48.220;14.480;2023-08-01T17:40:44;5.40;;;3.33;;
17890;SDS011;9071;48.220;14.480;2023-08-01T17:45:46;6.65;;;4.13;;
17890;SDS011;9071;48.220;14.480;2023-08-01T17:50:50;4.57;;;3.70;;
17890;SDS011;9071;48.220;14.480;2023-08-01T17:55:52;4.30;;;3.60;;
17890;SDS011;9071;48.220;14.480;2023-08-01T18:00:54;6.07;;;3.90;;
17890;SDS011;9071;48.220;14.480;2023-08-01T18:06:03;8.00;;;4.95;;
17890;SDS011;9071;48.220;14.480;2023-08-01T18:11:09;6.68;;;4.95;;
17890;SDS011;9071;48.220;14.480;2023-08-01T18:16:17;5.68;;;4.53;;
17890;SDS011;9071;48.220;14.480;2023-08-01T18:21:21;8.70;;;4.90;;
17890;SDS011;9071;48.220;14.480;2023-08-01T18:26:23;9.02;;;6.00;;
17890;SDS011;9071;48.220;14.480;2023-08-01T18:31:26;8.85;;;6.72;;
17890;SDS011;9071;48.220;14.480;2023-08-01T18:36:29;12.10;;;7.80;;
17890;SDS011;9071;48.220;14.480;2023-08-01T18:41:31;11.80;;;7.65;;
17890;SDS011;9071;48.220;14.480;2023-08-01T18:46:34;16.23;;;11.70;;
17890;SDS011;9071;48.220;14.480;2023-08-01T18:51:38;11.60;;;8.95;;
17890;SDS011;9071;48.220;14.480;2023-08-01T18:56:40;13.95;;;8.63;;
17890;SDS011;9071;48.220;14.480;2023-08-01T19:01:42;12.93;;;8.90;;
17890;SDS011;9071;48.220;14.480;2023-08-01T19:06:48;10.68;;;6.05;;
17890;SDS011;9071;48.220;14.480;2023-08-01T19:11:50;10.13;;;5.90;;
17890;SDS011;9071;48.220;14.480;2023-08-01T19:16:52;8.98;;;5.80;;
17890;SDS011;9071;48.220;14.480;2023-08-01T19:21:55;10.85;;;7.03;;
17890;SDS011;9071;48.220;14.480;2023-08-01T19:26:57;10.45;;;7.13;;
17890;SDS011;9071;48.220;14.480;2023-08-01T19:31:59;10.90;;;6.57;;
17890;SDS011;9071;48.220;14.480;2023-08-01T19:37:03;10.60;;;6.18;;
17890;SDS011;9071;48.220;14.480;2023-08-01T19:42:06;9.23;;;5.88;;
17890;SDS011;9071;48.220;14.480;2023-08-01T19:47:08;8.65;;;6.03;;
17890;SDS011;9071;48.220;14.480;2023-08-01T19:52:13;9.05;;;6.57;;
17890;SDS011;9071;48.220;14.480;2023-08-01T19:57:16;12.55;;;6.28;;
17890;SDS011;9071;48.220;14.480;2023-08-01T20:02:18;8.70;;;5.60;;
17890;SDS011;9071;48.220;14.480;2023-08-01T20:07:21;8.95;;;5.20;;
17890;SDS011;9071;48.220;14.480;2023-08-01T20:12:23;6.60;;;4.75;;
17890;SDS011;9071;48.220;14.480;2023-08-01T20:17:25;7.05;;;4.20;;
17890;SDS011;9071;48.220;14.480;2023-08-01T20:22:29;6.40;;;3.80;;
17890;SDS011;9071;48.220;14.480;2023-08-01T20:27:31;4.65;;;3.33;;
17890;SDS011;9071;48.220;14.480;2023-08-01T20:32:33;4.80;;;2.80;;
17890;SDS011;9071;48.220;14.480;2023-08-01T20:37:37;3.70;;;2.88;;
17890;SDS011;9071;48.220;14.480;2023-08-01T20:42:40;4.25;;;3.05;;
17890;SDS011;9071;48.220;14.480;2023-08-01T20:47:42;3.60;;;2.60;;
17890;SDS011;9071;48.220;14.480;2023-08-01T20:52:46;4.38;;;2.95;;
17890;SDS011;9071;48.220;14.480;2023-08-01T20:57:48;5.20;;;2.67;;
17890;SDS011;9071;48.220;14.480;2023-08-01T21:02:50;3.50;;;2.65;;
17890;SDS011;9071;48.220;14.480;2023-08-01T21:07:53;3.30;;;2.42;;
17890;SDS011;9071;48.220;14.480;2023-08-01T21:12:55;6.47;;;2.40;;
17890;SDS011;9071;48.220;14.480;2023-08-01T21:17:58;3.65;;;2.58;;
17890;SDS011;9071;48.220;14.480;2023-08-01T21:23:01;3.17;;;2.17;;
17890;SDS011;9071;48.220;14.480;2023-08-01T21:28:03;3.38;;;2.05;;
17890;SDS011;9071;48.220;14.480;2023-08-01T21:33:05;3.47;;;2.40;;
17890;SDS011;9071;48.220;14.480;2023-08-01T21:38:09;3.58;;;2.05;;
17890;SDS011;9071;48.220;14.480;2023-08-01T21:43:11;4.82;;;2.40;;
17890;SDS011;9071;48.220;14.480;2023-08-01T21:48:13;3.33;;;2.33;;
17890;SDS011;9071;48.220;14.480;2023-08-01T21:53:17;2.88;;;2.42;;
17890;SDS011;9071;48.220;14.480;2023-08-01T21:58:19;3.75;;;2.45;;
17890;SDS011;9071;48.220;14.480;2023-08-01T22:03:21;5.43;;;2.53;;
17890;SDS011;9071;48.220;14.480;2023-08-01T22:08:25;3.30;;;2.50;;
17890;SDS011;9071;48.220;14.480;2023-08-01T22:13:27;3.95;;;2.90;;
17890;SDS011;9071;48.220;14.480;2023-08-01T22:18:29;4.03;;;2.72;;
17890;SDS011;9071;48.220;14.480;2023-08-01T22:23:32;5.33;;;3.30;;
17890;SDS011;9071;48.220;14.480;2023-08-01T22:28:34;5.30;;;3.13;;
17890;SDS011;9071;48.220;14.480;2023-08-01T22:33:36;5.37;;;3.07;;
17890;SDS011;9071;48.220;14.480;2023-08-01T22:38:40;6.50;;;3.17;;
17890;SDS011;9071;48.220;14.480;2023-08-01T22:43:42;4.77;;;3.47;;
17890;SDS011;9071;48.220;14.480;2023-08-01T22:48:44;6.07;;;3.33;;
17890;SDS011;9071;48.220;14.480;2023-08-01T22:53:48;5.67;;;3.10;;
17890;SDS011;9071;48.220;14.480;2023-08-01T22:58:51;4.63;;;3.40;;
17890;SDS011;9071;48.220;14.480;2023-08-01T23:03:53;7.93;;;3.77;;
17890;SDS011;9071;48.220;14.480;2023-08-01T23:08:57;6.78;;;3.88;;
17890;SDS011;9071;48.220;14.480;2023-08-01T23:14:00;6.73;;;3.30;;
17890;SDS011;9071;48.220;14.480;2023-08-01T23:19:02;5.83;;;3.20;;
17890;SDS011;9071;48.220;14.480;2023-08-01T23:24:05;6.30;;;3.30;;
17890;SDS011;9071;48.220;14.480;2023-08-01T23:29:07;3.60;;;2.78;;
17890;SDS011;9071;48.220;14.480;2023-08-01T23:34:09;7.25;;;3.65;;
17890;SDS011;9071;48.220;14.480;2023-08-01T23:39:13;4.07;;;2.97;;
17890;SDS011;9071;48.220;14.480;2023-08-01T23:44:15;3.50;;;2.88;;
17890;SDS011;9071;48.220;14.480;2023-08-01T23:49:17;4.20;;;3.33;;
17890;SDS011;9071;48.220;14.480;2023-08-01T23:54:20;4.45;;;3.10;;
17890;SDS011;9071;48.220;14.480;2023-08-01T23:59:22;9.35;;;4.68;;
